sensor_id;sensor_type;location;lat;lon;timestamp;P1;durP1;ratioP1;P2;durP2;ratioP2
6422;SDS011;3244;42.708;23.288;2022-10-13T00:00:33;24.48;;;17.90;;
6422;SDS011;3244;42.708;23.288;2022-10-13T00:02:59;30.17;;;17.42;;
6422;SDS011;3244;42.708;23.288;2022-10-13T00:05:26;34.67;;;21.13;;
6422;SDS011;3244;42.708;23.288;2022-10-13T00:07:53;29.98;;;19.52;;
6422;SDS011;3244;42.708;23.288;2022-10-13T00:10:21;26.42;;;18.80;;
6422;SDS011;3244;42.708;23.288;2022-10-13T00:12:47;27.45;;;19.77;;
6422;SDS011;3244;42.708;23.288;2022-10-13T00:15:13;29.95;;;19.27;;
6422;SDS011;3244;42.708;23.288;2022-10-13T00:17:40;30.20;;;20.67;;
6422;SDS011;3244;42.708;23.288;2022-10-13T00:20:07;26.13;;;19.80;;
6422;SDS011;3244;42.708;23.288;2022-10-13T00:22:34;26.85;;;18.92;;
6422;SDS011;3244;42.708;23.288;2022-10-13T00:25:00;30.13;;;20.35;;
6422;SDS011;3244;42.708;23.288;2022-10-13T00:27:29;35.80;;;18.83;;
6422;SDS011;3244;42.708;23.288;2022-10-13T00:29:55;32.47;;;20.38;;
6422;SDS011;3244;42.708;23.288;2022-10-13T00:32:22;30.83;;;18.70;;
6422;SDS011;3244;42.708;23.288;2022-10-13T00:34:48;30.67;;;19.00;;
6422;SDS011;3244;42.708;23.288;2022-10-13T00:37:14;24.85;;;18.00;;
6422;SDS011;3244;42.708;23.288;2022-10-13T00:39:41;24.63;;;18.02;;
6422;SDS011;3244;42.708;23.288;2022-10-13T00:42:09;24.17;;;17.30;;
6422;SDS011;3244;42.708;23.288;2022-10-13T00:44:57;26.60;;;17.95;;
6422;SDS011;3244;42.708;23.288;2022-10-13T00:47:23;25.08;;;16.58;;
6422;SDS011;3244;42.708;23.288;2022-10-13T00:49:51;27.23;;;16.45;;
6422;SDS011;3244;42.708;23.288;2022-10-13T00:52:18;22.80;;;15.82;;
6422;SDS011;3244;42.708;23.288;2022-10-13T00:54:46;23.13;;;17.17;;
6422;SDS011;3244;42.708;23.288;2022-10-13T00:57:13;23.65;;;17.40;;
6422;SDS011;3244;42.708;23.288;2022-10-13T00:59:40;22.35;;;16.67;;
6422;SDS011;3244;42.708;23.288;2022-10-13T01:02:07;22.50;;;16.70;;
6422;SDS011;3244;42.708;23.288;2022-10-13T01:04:36;22.83;;;16.90;;
6422;SDS011;3244;42.708;23.288;2022-10-13T01:07:03;24.02;;;16.92;;
6422;SDS011;3244;42.708;23.288;2022-10-13T01:09:30;21.52;;;15.90;;
6422;SDS011;3244;42.708;23.288;2022-10-13T01:12:02;22.45;;;16.25;;
6422;SDS011;3244;42.708;23.288;2022-10-13T01:14:37;21.33;;;15.38;;
6422;SDS011;3244;42.708;23.288;2022-10-13T01:17:08;29.83;;;16.25;;
6422;SDS011;3244;42.708;23.288;2022-10-13T01:19:50;22.23;;;15.98;;
6422;SDS011;3244;42.708;23.288;2022-10-13T01:22:25;19.95;;;15.23;;
6422;SDS011;3244;42.708;23.288;2022-10-13T01:24:57;26.65;;;16.40;;
6422;SDS011;3244;42.708;23.288;2022-10-13T01:27:37;26.15;;;17.15;;
6422;SDS011;3244;42.708;23.288;2022-10-13T01:30:09;22.58;;;16.77;;
6422;SDS011;3244;42.708;23.288;2022-10-13T01:32:48;20.60;;;14.60;;
6422;SDS011;3244;42.708;23.288;2022-10-13T01:35:17;25.95;;;15.40;;
6422;SDS011;3244;42.708;23.288;2022-10-13T01:37:46;24.27;;;14.98;;
6422;SDS011;3244;42.708;23.288;2022-10-13T01:40:14;29.55;;;15.70;;
6422;SDS011;3244;42.708;23.288;2022-10-13T01:42:45;22.55;;;16.13;;
6422;SDS011;3244;42.708;23.288;2022-10-13T01:45:15;22.08;;;16.23;;
6422;SDS011;3244;42.708;23.288;2022-10-13T01:47:43;22.45;;;15.13;;
6422;SDS011;3244;42.708;23.288;2022-10-13T01:50:10;24.95;;;15.32;;
6422;SDS011;3244;42.708;23.288;2022-10-13T01:52:37;23.70;;;15.85;;
6422;SDS011;3244;42.708;23.288;2022-10-13T01:55:05;20.35;;;16.15;;
6422;SDS011;3244;42.708;23.288;2022-10-13T01:57:32;28.17;;;19.40;;
6422;SDS011;3244;42.708;23.288;2022-10-13T01:59:59;35.45;;;22.65;;
6422;SDS011;3244;42.708;23.288;2022-10-13T02:02:30;28.50;;;20.05;;
6422;SDS011;3244;42.708;23.288;2022-10-13T02:05:02;38.33;;;25.27;;
6422;SDS011;3244;42.708;23.288;2022-10-13T02:07:32;38.08;;;23.10;;
6422;SDS011;3244;42.708;23.288;2022-10-13T02:10:03;31.45;;;20.55;;
6422;SDS011;3244;42.708;23.288;2022-10-13T02:12:33;32.58;;;21.17;;
6422;SDS011;3244;42.708;23.288;2022-10-13T02:15:02;34.10;;;22.45;;
6422;SDS011;3244;42.708;23.288;2022-10-13T02:17:31;32.05;;;22.52;;
6422;SDS011;3244;42.708;23.288;2022-10-13T02:19:57;26.70;;;19.50;;
6422;SDS011;3244;42.708;23.288;2022-10-13T02:22:25;25.33;;;19.95;;
6422;SDS011;3244;42.708;23.288;2022-10-13T02:24:53;30.27;;;21.13;;
6422;SDS011;3244;42.708;23.288;2022-10-13T02:27:20;33.55;;;22.63;;
6422;SDS011;3244;42.708;23.288;2022-10-13T02:29:47;37.30;;;24.25;;
6422;SDS011;3244;42.708;23.288;2022-10-13T02:32:14;31.20;;;19.92;;
6422;SDS011;3244;42.708;23.288;2022-10-13T02:34:42;25.58;;;19.35;;
6422;SDS011;3244;42.708;23.288;2022-10-13T02:37:08;31.20;;;19.88;;
6422;SDS011;3244;42.708;23.288;2022-10-13T02:39:35;31.63;;;20.58;;
6422;SDS011;3244;42.708;23.288;2022-10-13T02:42:01;29.58;;;19.88;;
6422;SDS011;3244;42.708;23.288;2022-10-13T02:44:28;29.50;;;18.65;;
6422;SDS011;3244;42.708;23.288;2022-10-13T02:46:54;22.60;;;17.33;;
6422;SDS011;3244;42.708;23.288;2022-10-13T02:49:21;24.75;;;16.48;;
6422;SDS011;3244;42.708;23.288;2022-10-13T02:51:49;25.42;;;17.48;;
6422;SDS011;3244;42.708;23.288;2022-10-13T02:54:15;28.42;;;18.23;;
6422;SDS011;3244;42.708;23.288;2022-10-13T02:56:42;23.45;;;17.02;;
6422;SDS011;3244;42.708;23.288;2022-10-13T02:59:08;23.02;;;17.05;;
6422;SDS011;3244;42.708;23.288;2022-10-13T03:01:36;29.38;;;19.52;;
6422;SDS011;3244;42.708;23.288;2022-10-13T03:04:05;27.98;;;18.33;;
6422;SDS011;3244;42.708;23.288;2022-10-13T03:06:32;27.92;;;19.73;;
6422;SDS011;3244;42.708;23.288;2022-10-13T03:09:00;30.20;;;19.67;;
6422;SDS011;3244;42.708;23.288;2022-10-13T03:11:26;28.17;;;19.00;;
6422;SDS011;3244;42.708;23.288;2022-10-13T03:13:53;24.67;;;18.38;;
6422;SDS011;3244;42.708;23.288;2022-10-13T03:16:19;29.30;;;18.48;;
6422;SDS011;3244;42.708;23.288;2022-10-13T03:18:46;27.17;;;18.05;;
6422;SDS011;3244;42.708;23.288;2022-10-13T03:21:12;25.90;;;16.92;;
6422;SDS011;3244;42.708;23.288;2022-10-13T03:23:39;21.33;;;16.73;;
6422;SDS011;3244;42.708;23.288;2022-10-13T03:26:06;24.67;;;17.77;;
6422;SDS011;3244;42.708;23.288;2022-10-13T03:28:33;24.20;;;16.95;;
6422;SDS011;3244;42.708;23.288;2022-10-13T03:31:00;26.85;;;16.38;;
6422;SDS011;3244;42.708;23.288;2022-10-13T03:33:27;23.45;;;17.15;;
6422;SDS011;3244;42.708;23.288;2022-10-13T03:35:55;27.52;;;16.02;;
6422;SDS011;3244;42.708;23.288;2022-10-13T03:38:22;24.17;;;17.05;;
6422;SDS011;3244;42.708;23.288;2022-10-13T03:40:49;22.77;;;15.60;;
6422;SDS011;3244;42.708;23.288;2022-10-13T03:43:17;28.75;;;16.27;;
6422;SDS011;3244;42.708;23.288;2022-10-13T03:45:43;25.38;;;16.55;;
6422;SDS011;3244;42.708;23.288;2022-10-13T03:48:10;23.73;;;17.15;;
6422;SDS011;3244;42.708;23.288;2022-10-13T03:50:36;24.15;;;16.10;;
6422;SDS011;3244;42.708;23.288;2022-10-13T03:53:03;50.72;;;30.08;;
6422;SDS011;3244;42.708;23.288;2022-10-13T03:55:29;78.93;;;44.42;;
6422;SDS011;3244;42.708;23.288;2022-10-13T03:57:56;36.47;;;21.77;;
6422;SDS011;3244;42.708;23.288;2022-10-13T04:00:24;32.78;;;20.95;;
6422;SDS011;3244;42.708;23.288;2022-10-13T04:02:50;33.67;;;18.95;;
6422;SDS011;3244;42.708;23.288;2022-10-13T04:05:16;39.40;;;18.98;;
6422;SDS011;3244;42.708;23.288;2022-10-13T04:07:43;36.95;;;18.65;;
6422;SDS011;3244;42.708;23.288;2022-10-13T04:10:09;36.75;;;20.38;;
6422;SDS011;3244;42.708;23.288;2022-10-13T04:12:36;36.90;;;19.98;;
6422;SDS011;3244;42.708;23.288;2022-10-13T04:15:03;35.47;;;19.85;;
6422;SDS011;3244;42.708;23.288;2022-10-13T04:17:31;44.20;;;21.83;;
6422;SDS011;3244;42.708;23.288;2022-10-13T04:19:57;44.25;;;22.65;;
6422;SDS011;3244;42.708;23.288;2022-10-13T04:22:24;78.78;;;39.67;;
6422;SDS011;3244;42.708;23.288;2022-10-13T04:24:50;62.17;;;27.85;;
6422;SDS011;3244;42.708;23.288;2022-10-13T04:27:17;43.33;;;21.77;;
6422;SDS011;3244;42.708;23.288;2022-10-13T04:29:44;49.78;;;22.52;;
6422;SDS011;3244;42.708;23.288;2022-10-13T04:32:10;38.22;;;21.42;;
6422;SDS011;3244;42.708;23.288;2022-10-13T04:34:38;38.33;;;21.70;;
6422;SDS011;3244;42.708;23.288;2022-10-13T04:37:05;38.55;;;21.17;;
6422;SDS011;3244;42.708;23.288;2022-10-13T04:39:31;71.68;;;39.70;;
6422;SDS011;3244;42.708;23.288;2022-10-13T04:41:58;86.43;;;45.45;;
6422;SDS011;3244;42.708;23.288;2022-10-13T04:44:24;53.58;;;30.20;;
6422;SDS011;3244;42.708;23.288;2022-10-13T04:46:51;49.60;;;24.83;;
6422;SDS011;3244;42.708;23.288;2022-10-13T04:49:17;50.33;;;24.17;;
6422;SDS011;3244;42.708;23.288;2022-10-13T04:51:45;45.03;;;25.27;;
6422;SDS011;3244;42.708;23.288;2022-10-13T04:54:11;39.20;;;24.35;;
6422;SDS011;3244;42.708;23.288;2022-10-13T04:56:38;44.65;;;23.67;;
6422;SDS011;3244;42.708;23.288;2022-10-13T04:59:05;38.03;;;22.70;;
6422;SDS011;3244;42.708;23.288;2022-10-13T05:01:31;44.58;;;24.77;;
6422;SDS011;3244;42.708;23.288;2022-10-13T05:04:00;36.60;;;22.02;;
6422;SDS011;3244;42.708;23.288;2022-10-13T05:06:28;38.30;;;21.90;;
6422;SDS011;3244;42.708;23.288;2022-10-13T05:08:56;40.58;;;22.75;;
6422;SDS011;3244;42.708;23.288;2022-10-13T05:11:22;39.58;;;23.35;;
6422;SDS011;3244;42.708;23.288;2022-10-13T05:13:49;48.92;;;24.20;;
6422;SDS011;3244;42.708;23.288;2022-10-13T05:16:17;53.90;;;26.35;;
6422;SDS011;3244;42.708;23.288;2022-10-13T05:18:44;59.05;;;27.50;;
6422;SDS011;3244;42.708;23.288;2022-10-13T05:21:11;65.10;;;29.13;;
6422;SDS011;3244;42.708;23.288;2022-10-13T05:23:38;63.40;;;29.20;;
6422;SDS011;3244;42.708;23.288;2022-10-13T05:26:07;67.65;;;28.67;;
6422;SDS011;3244;42.708;23.288;2022-10-13T05:28:34;58.45;;;29.48;;
6422;SDS011;3244;42.708;23.288;2022-10-13T05:31:07;56.22;;;29.02;;
6422;SDS011;3244;42.708;23.288;2022-10-13T05:33:34;54.47;;;27.95;;
6422;SDS011;3244;42.708;23.288;2022-10-13T05:36:02;55.50;;;27.40;;
6422;SDS011;3244;42.708;23.288;2022-10-13T05:38:28;51.38;;;27.80;;
6422;SDS011;3244;42.708;23.288;2022-10-13T05:40:57;62.35;;;29.75;;
6422;SDS011;3244;42.708;23.288;2022-10-13T05:43:27;57.65;;;27.90;;
6422;SDS011;3244;42.708;23.288;2022-10-13T05:45:55;54.92;;;28.73;;
6422;SDS011;3244;42.708;23.288;2022-10-13T05:48:21;47.15;;;25.45;;
6422;SDS011;3244;42.708;23.288;2022-10-13T05:50:48;43.97;;;24.60;;
6422;SDS011;3244;42.708;23.288;2022-10-13T05:53:14;44.95;;;24.10;;
6422;SDS011;3244;42.708;23.288;2022-10-13T05:55:41;35.85;;;23.30;;
6422;SDS011;3244;42.708;23.288;2022-10-13T05:58:08;35.97;;;23.25;;
6422;SDS011;3244;42.708;23.288;2022-10-13T06:00:36;47.70;;;24.48;;
6422;SDS011;3244;42.708;23.288;2022-10-13T06:03:03;39.10;;;23.58;;
6422;SDS011;3244;42.708;23.288;2022-10-13T06:05:32;40.67;;;23.00;;
6422;SDS011;3244;42.708;23.288;2022-10-13T06:07:58;34.92;;;22.38;;
6422;SDS011;3244;42.708;23.288;2022-10-13T06:10:25;34.55;;;21.52;;
6422;SDS011;3244;42.708;23.288;2022-10-13T06:12:51;41.05;;;22.30;;
6422;SDS011;3244;42.708;23.288;2022-10-13T06:15:18;46.65;;;23.17;;
6422;SDS011;3244;42.708;23.288;2022-10-13T06:17:46;54.90;;;23.83;;
6422;SDS011;3244;42.708;23.288;2022-10-13T06:20:12;40.10;;;22.20;;
6422;SDS011;3244;42.708;23.288;2022-10-13T06:22:39;35.28;;;21.92;;
6422;SDS011;3244;42.708;23.288;2022-10-13T06:25:06;31.88;;;21.40;;
6422;SDS011;3244;42.708;23.288;2022-10-13T06:27:32;31.95;;;19.83;;
6422;SDS011;3244;42.708;23.288;2022-10-13T06:29:59;31.40;;;20.70;;
6422;SDS011;3244;42.708;23.288;2022-10-13T06:32:26;34.85;;;22.23;;
6422;SDS011;3244;42.708;23.288;2022-10-13T06:34:53;41.42;;;24.40;;
6422;SDS011;3244;42.708;23.288;2022-10-13T06:37:20;34.70;;;22.80;;
6422;SDS011;3244;42.708;23.288;2022-10-13T06:39:46;45.97;;;24.02;;
6422;SDS011;3244;42.708;23.288;2022-10-13T06:42:13;40.92;;;25.15;;
6422;SDS011;3244;42.708;23.288;2022-10-13T06:44:40;62.42;;;33.95;;
6422;SDS011;3244;42.708;23.288;2022-10-13T06:47:06;41.42;;;22.60;;
6422;SDS011;3244;42.708;23.288;2022-10-13T06:49:33;36.80;;;22.48;;
6422;SDS011;3244;42.708;23.288;2022-10-13T06:52:01;41.05;;;24.30;;
6422;SDS011;3244;42.708;23.288;2022-10-13T06:54:27;43.42;;;23.45;;
6422;SDS011;3244;42.708;23.288;2022-10-13T06:56:54;38.95;;;24.45;;
6422;SDS011;3244;42.708;23.288;2022-10-13T06:59:21;38.05;;;24.52;;
6422;SDS011;3244;42.708;23.288;2022-10-13T07:01:48;37.28;;;26.15;;
6422;SDS011;3244;42.708;23.288;2022-10-13T07:04:15;37.30;;;23.50;;
6422;SDS011;3244;42.708;23.288;2022-10-13T07:06:42;43.10;;;23.95;;
6422;SDS011;3244;42.708;23.288;2022-10-13T07:09:10;34.53;;;23.08;;
6422;SDS011;3244;42.708;23.288;2022-10-13T07:11:36;37.70;;;23.83;;
6422;SDS011;3244;42.708;23.288;2022-10-13T07:14:03;36.90;;;23.80;;
6422;SDS011;3244;42.708;23.288;2022-10-13T07:16:29;39.88;;;23.00;;
6422;SDS011;3244;42.708;23.288;2022-10-13T07:18:56;31.27;;;22.17;;
6422;SDS011;3244;42.708;23.288;2022-10-13T07:21:22;30.90;;;21.70;;
6422;SDS011;3244;42.708;23.288;2022-10-13T07:23:48;32.95;;;21.67;;
6422;SDS011;3244;42.708;23.288;2022-10-13T07:26:16;35.53;;;23.27;;
6422;SDS011;3244;42.708;23.288;2022-10-13T07:28:43;38.08;;;22.60;;
6422;SDS011;3244;42.708;23.288;2022-10-13T07:31:10;64.50;;;30.13;;
6422;SDS011;3244;42.708;23.288;2022-10-13T07:33:37;38.78;;;24.00;;
6422;SDS011;3244;42.708;23.288;2022-10-13T07:36:04;34.42;;;22.08;;
6422;SDS011;3244;42.708;23.288;2022-10-13T07:38:31;34.35;;;21.98;;
6422;SDS011;3244;42.708;23.288;2022-10-13T07:40:58;34.55;;;22.92;;
6422;SDS011;3244;42.708;23.288;2022-10-13T07:43:26;43.13;;;24.88;;
6422;SDS011;3244;42.708;23.288;2022-10-13T07:45:53;37.45;;;24.90;;
6422;SDS011;3244;42.708;23.288;2022-10-13T07:48:19;49.97;;;26.73;;
6422;SDS011;3244;42.708;23.288;2022-10-13T07:50:46;34.13;;;22.17;;
6422;SDS011;3244;42.708;23.288;2022-10-13T07:53:12;45.03;;;26.42;;
6422;SDS011;3244;42.708;23.288;2022-10-13T07:55:39;43.13;;;25.85;;
6422;SDS011;3244;42.708;23.288;2022-10-13T07:58:05;26.70;;;19.67;;
6422;SDS011;3244;42.708;23.288;2022-10-13T08:00:33;26.48;;;19.98;;
6422;SDS011;3244;42.708;23.288;2022-10-13T08:03:00;31.13;;;22.35;;
6422;SDS011;3244;42.708;23.288;2022-10-13T08:05:26;40.40;;;24.83;;
6422;SDS011;3244;42.708;23.288;2022-10-13T08:07:53;26.58;;;20.17;;
6422;SDS011;3244;42.708;23.288;2022-10-13T08:10:19;23.10;;;20.60;;
6422;SDS011;3244;42.708;23.288;2022-10-13T08:12:46;24.90;;;20.58;;
6422;SDS011;3244;42.708;23.288;2022-10-13T08:15:13;33.88;;;20.65;;
6422;SDS011;3244;42.708;23.288;2022-10-13T08:17:41;22.95;;;19.73;;
6422;SDS011;3244;42.708;23.288;2022-10-13T08:20:07;24.55;;;21.40;;
6422;SDS011;3244;42.708;23.288;2022-10-13T08:22:34;36.00;;;22.05;;
6422;SDS011;3244;42.708;23.288;2022-10-13T08:25:01;30.25;;;22.55;;
6422;SDS011;3244;42.708;23.288;2022-10-13T08:27:28;33.05;;;21.90;;
6422;SDS011;3244;42.708;23.288;2022-10-13T08:29:54;28.10;;;20.58;;
6422;SDS011;3244;42.708;23.288;2022-10-13T08:32:21;24.67;;;19.85;;
6422;SDS011;3244;42.708;23.288;2022-10-13T08:34:49;29.88;;;19.70;;
6422;SDS011;3244;42.708;23.288;2022-10-13T08:37:16;28.48;;;20.65;;
6422;SDS011;3244;42.708;23.288;2022-10-13T08:39:43;32.08;;;21.65;;
6422;SDS011;3244;42.708;23.288;2022-10-13T08:42:13;31.15;;;19.75;;
6422;SDS011;3244;42.708;23.288;2022-10-13T08:44:42;31.42;;;23.70;;
6422;SDS011;3244;42.708;23.288;2022-10-13T08:47:11;30.63;;;20.13;;
6422;SDS011;3244;42.708;23.288;2022-10-13T08:49:40;44.13;;;23.35;;
6422;SDS011;3244;42.708;23.288;2022-10-13T08:52:09;27.98;;;20.00;;
6422;SDS011;3244;42.708;23.288;2022-10-13T08:54:38;31.13;;;21.13;;
6422;SDS011;3244;42.708;23.288;2022-10-13T08:57:06;29.08;;;21.85;;
6422;SDS011;3244;42.708;23.288;2022-10-13T08:59:33;28.85;;;21.10;;
6422;SDS011;3244;42.708;23.288;2022-10-13T09:02:00;30.85;;;20.35;;
6422;SDS011;3244;42.708;23.288;2022-10-13T09:04:28;27.92;;;20.27;;
6422;SDS011;3244;42.708;23.288;2022-10-13T09:06:57;36.05;;;18.88;;
6422;SDS011;3244;42.708;23.288;2022-10-13T09:09:28;23.30;;;19.75;;
6422;SDS011;3244;42.708;23.288;2022-10-13T09:11:56;34.88;;;21.58;;
6422;SDS011;3244;42.708;23.288;2022-10-13T09:14:24;33.17;;;19.65;;
6422;SDS011;3244;42.708;23.288;2022-10-13T09:16:52;31.00;;;20.65;;
6422;SDS011;3244;42.708;23.288;2022-10-13T09:19:20;30.08;;;20.13;;
6422;SDS011;3244;42.708;23.288;2022-10-13T09:21:47;24.20;;;18.55;;
6422;SDS011;3244;42.708;23.288;2022-10-13T09:24:15;29.73;;;19.60;;
6422;SDS011;3244;42.708;23.288;2022-10-13T09:26:43;34.42;;;19.70;;
6422;SDS011;3244;42.708;23.288;2022-10-13T09:29:14;27.25;;;18.50;;
6422;SDS011;3244;42.708;23.288;2022-10-13T09:31:41;38.67;;;20.58;;
6422;SDS011;3244;42.708;23.288;2022-10-13T09:34:11;27.92;;;19.55;;
6422;SDS011;3244;42.708;23.288;2022-10-13T09:36:44;31.33;;;21.42;;
6422;SDS011;3244;42.708;23.288;2022-10-13T09:39:19;28.98;;;18.90;;
6422;SDS011;3244;42.708;23.288;2022-10-13T09:41:48;31.10;;;19.13;;
6422;SDS011;3244;42.708;23.288;2022-10-13T09:44:15;27.52;;;19.90;;
6422;SDS011;3244;42.708;23.288;2022-10-13T09:46:47;33.25;;;22.08;;
6422;SDS011;3244;42.708;23.288;2022-10-13T09:49:29;35.92;;;21.45;;
6422;SDS011;3244;42.708;23.288;2022-10-13T09:51:59;34.75;;;22.67;;
6422;SDS011;3244;42.708;23.288;2022-10-13T09:54:27;33.70;;;22.67;;
6422;SDS011;3244;42.708;23.288;2022-10-13T09:56:56;33.72;;;21.40;;
6422;SDS011;3244;42.708;23.288;2022-10-13T09:59:27;31.55;;;20.58;;
6422;SDS011;3244;42.708;23.288;2022-10-13T10:01:57;29.90;;;20.63;;
6422;SDS011;3244;42.708;23.288;2022-10-13T10:04:28;30.77;;;21.17;;
6422;SDS011;3244;42.708;23.288;2022-10-13T10:06:57;37.08;;;21.77;;
6422;SDS011;3244;42.708;23.288;2022-10-13T10:09:30;28.20;;;19.77;;
6422;SDS011;3244;42.708;23.288;2022-10-13T10:12:00;39.08;;;21.17;;
6422;SDS011;3244;42.708;23.288;2022-10-13T10:14:29;26.45;;;20.67;;
6422;SDS011;3244;42.708;23.288;2022-10-13T10:16:58;39.30;;;20.40;;
6422;SDS011;3244;42.708;23.288;2022-10-13T10:19:27;25.08;;;19.35;;
6422;SDS011;3244;42.708;23.288;2022-10-13T10:21:58;29.98;;;20.48;;
6422;SDS011;3244;42.708;23.288;2022-10-13T10:24:30;30.85;;;20.75;;
6422;SDS011;3244;42.708;23.288;2022-10-13T10:27:02;29.08;;;20.38;;
6422;SDS011;3244;42.708;23.288;2022-10-13T10:29:34;28.35;;;18.45;;
6422;SDS011;3244;42.708;23.288;2022-10-13T10:32:07;28.73;;;18.95;;
6422;SDS011;3244;42.708;23.288;2022-10-13T10:34:36;31.38;;;21.15;;
6422;SDS011;3244;42.708;23.288;2022-10-13T10:39:58;40.35;;;21.20;;
6422;SDS011;3244;42.708;23.288;2022-10-13T10:42:37;31.83;;;20.40;;
6422;SDS011;3244;42.708;23.288;2022-10-13T10:45:12;27.55;;;19.50;;
6422;SDS011;3244;42.708;23.288;2022-10-13T10:47:41;27.85;;;18.95;;
6422;SDS011;3244;42.708;23.288;2022-10-13T10:50:12;30.80;;;20.00;;
6422;SDS011;3244;42.708;23.288;2022-10-13T10:52:40;31.98;;;20.15;;
6422;SDS011;3244;42.708;23.288;2022-10-13T10:55:20;33.78;;;20.10;;
6422;SDS011;3244;42.708;23.288;2022-10-13T10:57:52;32.00;;;19.95;;
6422;SDS011;3244;42.708;23.288;2022-10-13T11:00:23;29.17;;;19.15;;
6422;SDS011;3244;42.708;23.288;2022-10-13T11:02:52;27.08;;;18.23;;
6422;SDS011;3244;42.708;23.288;2022-10-13T11:05:24;23.35;;;17.98;;
6422;SDS011;3244;42.708;23.288;2022-10-13T11:07:55;31.63;;;19.48;;
6422;SDS011;3244;42.708;23.288;2022-10-13T11:10:22;25.98;;;19.17;;
6422;SDS011;3244;42.708;23.288;2022-10-13T11:13:14;31.40;;;21.10;;
6422;SDS011;3244;42.708;23.288;2022-10-13T11:15:41;24.85;;;18.55;;
6422;SDS011;3244;42.708;23.288;2022-10-13T11:20:57;30.35;;;18.67;;
6422;SDS011;3244;42.708;23.288;2022-10-13T11:23:31;36.67;;;20.75;;
6422;SDS011;3244;42.708;23.288;2022-10-13T11:28:46;27.55;;;18.65;;
6422;SDS011;3244;42.708;23.288;2022-10-13T11:31:23;31.25;;;20.42;;
6422;SDS011;3244;42.708;23.288;2022-10-13T11:33:51;27.83;;;18.98;;
6422;SDS011;3244;42.708;23.288;2022-10-13T11:41:58;23.63;;;17.15;;
6422;SDS011;3244;42.708;23.288;2022-10-13T11:44:31;32.97;;;17.80;;
6422;SDS011;3244;42.708;23.288;2022-10-13T11:47:00;27.00;;;17.48;;
6422;SDS011;3244;42.708;23.288;2022-10-13T11:49:38;23.65;;;17.05;;
6422;SDS011;3244;42.708;23.288;2022-10-13T11:54:54;20.50;;;16.25;;
6422;SDS011;3244;42.708;23.288;2022-10-13T11:57:24;27.00;;;17.70;;
6422;SDS011;3244;42.708;23.288;2022-10-13T11:59:52;27.27;;;17.98;;
6422;SDS011;3244;42.708;23.288;2022-10-13T12:02:20;25.50;;;17.48;;
6422;SDS011;3244;42.708;23.288;2022-10-13T12:04:57;32.22;;;17.58;;
6422;SDS011;3244;42.708;23.288;2022-10-13T12:07:24;33.40;;;21.13;;
6422;SDS011;3244;42.708;23.288;2022-10-13T12:09:55;102.82;;;60.25;;
6422;SDS011;3244;42.708;23.288;2022-10-13T12:12:23;23.65;;;18.55;;
6422;SDS011;3244;42.708;23.288;2022-10-13T12:14:50;25.13;;;18.10;;
6422;SDS011;3244;42.708;23.288;2022-10-13T12:17:20;32.28;;;20.27;;
6422;SDS011;3244;42.708;23.288;2022-10-13T12:19:47;21.77;;;16.38;;
6422;SDS011;3244;42.708;23.288;2022-10-13T12:22:14;23.10;;;14.88;;
6422;SDS011;3244;42.708;23.288;2022-10-13T12:24:40;17.27;;;14.73;;
6422;SDS011;3244;42.708;23.288;2022-10-13T12:27:08;20.38;;;14.20;;
6422;SDS011;3244;42.708;23.288;2022-10-13T12:29:37;19.65;;;14.75;;
6422;SDS011;3244;42.708;23.288;2022-10-13T12:32:15;19.02;;;14.07;;
6422;SDS011;3244;42.708;23.288;2022-10-13T12:34:44;17.58;;;13.93;;
6422;SDS011;3244;42.708;23.288;2022-10-13T12:37:12;21.15;;;13.85;;
6422;SDS011;3244;42.708;23.288;2022-10-13T12:39:40;30.48;;;16.30;;
6422;SDS011;3244;42.708;23.288;2022-10-13T12:42:08;19.65;;;13.52;;
6422;SDS011;3244;42.708;23.288;2022-10-13T12:44:36;18.02;;;13.95;;
6422;SDS011;3244;42.708;23.288;2022-10-13T12:47:02;15.43;;;11.73;;
6422;SDS011;3244;42.708;23.288;2022-10-13T12:49:30;25.25;;;13.30;;
6422;SDS011;3244;42.708;23.288;2022-10-13T12:52:02;18.80;;;12.27;;
6422;SDS011;3244;42.708;23.288;2022-10-13T12:54:30;13.90;;;11.93;;
6422;SDS011;3244;42.708;23.288;2022-10-13T12:56:57;13.88;;;11.43;;
6422;SDS011;3244;42.708;23.288;2022-10-13T12:59:25;14.77;;;11.10;;
6422;SDS011;3244;42.708;23.288;2022-10-13T13:01:53;15.57;;;11.38;;
6422;SDS011;3244;42.708;23.288;2022-10-13T13:04:27;12.93;;;10.80;;
6422;SDS011;3244;42.708;23.288;2022-10-13T13:06:54;20.35;;;12.07;;
6422;SDS011;3244;42.708;23.288;2022-10-13T13:09:26;11.48;;;10.35;;
6422;SDS011;3244;42.708;23.288;2022-10-13T13:14:38;13.75;;;9.27;;
6422;SDS011;3244;42.708;23.288;2022-10-13T13:17:06;10.48;;;9.55;;
6422;SDS011;3244;42.708;23.288;2022-10-13T13:19:33;11.90;;;10.68;;
6422;SDS011;3244;42.708;23.288;2022-10-13T13:22:01;10.18;;;9.18;;
6422;SDS011;3244;42.708;23.288;2022-10-13T13:24:29;10.93;;;8.50;;
6422;SDS011;3244;42.708;23.288;2022-10-13T13:26:55;10.27;;;9.10;;
6422;SDS011;3244;42.708;23.288;2022-10-13T13:29:22;10.60;;;8.85;;
6422;SDS011;3244;42.708;23.288;2022-10-13T13:31:48;13.27;;;9.27;;
6422;SDS011;3244;42.708;23.288;2022-10-13T13:34:15;11.45;;;9.07;;
6422;SDS011;3244;42.708;23.288;2022-10-13T13:36:42;10.85;;;9.75;;
6422;SDS011;3244;42.708;23.288;2022-10-13T13:39:11;14.75;;;9.48;;
6422;SDS011;3244;42.708;23.288;2022-10-13T13:41:40;13.32;;;10.85;;
6422;SDS011;3244;42.708;23.288;2022-10-13T13:44:07;13.18;;;9.73;;
6422;SDS011;3244;42.708;23.288;2022-10-13T13:46:34;16.30;;;8.70;;
6422;SDS011;3244;42.708;23.288;2022-10-13T13:49:00;10.63;;;8.95;;
6422;SDS011;3244;42.708;23.288;2022-10-13T13:51:27;9.75;;;8.75;;
6422;SDS011;3244;42.708;23.288;2022-10-13T13:53:54;12.15;;;9.77;;
6422;SDS011;3244;42.708;23.288;2022-10-13T13:56:20;14.65;;;8.40;;
6422;SDS011;3244;42.708;23.288;2022-10-13T13:58:48;18.48;;;11.68;;
6422;SDS011;3244;42.708;23.288;2022-10-13T14:01:15;19.05;;;12.60;;
6422;SDS011;3244;42.708;23.288;2022-10-13T14:03:41;14.07;;;9.45;;
6422;SDS011;3244;42.708;23.288;2022-10-13T14:06:08;15.45;;;8.40;;
6422;SDS011;3244;42.708;23.288;2022-10-13T14:08:41;10.98;;;8.75;;
6422;SDS011;3244;42.708;23.288;2022-10-13T14:11:08;17.77;;;10.23;;
6422;SDS011;3244;42.708;23.288;2022-10-13T14:13:35;9.75;;;8.63;;
6422;SDS011;3244;42.708;23.288;2022-10-13T14:16:04;15.30;;;9.52;;
6422;SDS011;3244;42.708;23.288;2022-10-13T14:18:30;15.07;;;9.57;;
6422;SDS011;3244;42.708;23.288;2022-10-13T14:20:58;10.90;;;8.70;;
6422;SDS011;3244;42.708;23.288;2022-10-13T14:23:25;15.90;;;9.80;;
6422;SDS011;3244;42.708;23.288;2022-10-13T14:25:52;16.88;;;9.82;;
6422;SDS011;3244;42.708;23.288;2022-10-13T14:28:19;12.80;;;9.93;;
6422;SDS011;3244;42.708;23.288;2022-10-13T14:30:46;30.52;;;20.08;;
6422;SDS011;3244;42.708;23.288;2022-10-13T14:33:13;16.73;;;10.35;;
6422;SDS011;3244;42.708;23.288;2022-10-13T14:35:43;13.68;;;9.55;;
6422;SDS011;3244;42.708;23.288;2022-10-13T14:38:10;11.50;;;9.52;;
6422;SDS011;3244;42.708;23.288;2022-10-13T14:40:39;10.25;;;8.48;;
6422;SDS011;3244;42.708;23.288;2022-10-13T14:43:05;11.23;;;9.55;;
6422;SDS011;3244;42.708;23.288;2022-10-13T14:45:32;22.08;;;10.73;;
6422;SDS011;3244;42.708;23.288;2022-10-13T14:47:58;22.80;;;9.52;;
6422;SDS011;3244;42.708;23.288;2022-10-13T14:50:26;16.30;;;9.20;;
6422;SDS011;3244;42.708;23.288;2022-10-13T14:52:53;13.43;;;9.50;;
6422;SDS011;3244;42.708;23.288;2022-10-13T14:55:19;15.30;;;10.00;;
6422;SDS011;3244;42.708;23.288;2022-10-13T14:57:47;11.32;;;8.25;;
6422;SDS011;3244;42.708;23.288;2022-10-13T15:00:13;10.00;;;7.25;;